sensor_id;sensor_type;location;lat;lon;timestamp;temperature;humidity
25280;DHT22;13225;47.804;12.116;2023-07-02T00:01:12;17.50;99.90
25280;DHT22;13225;47.804;12.116;2023-07-02T00:03:38;17.50;99.90
25280;DHT22;13225;47.804;12.116;2023-07-02T00:06:04;17.60;99.90
25280;DHT22;13225;47.804;12.116;2023-07-02T00:08:29;17.60;99.90
25280;DHT22;13225;47.804;12.116;2023-07-02T00:10:55;17.60;99.90
25280;DHT22;13225;47.804;12.116;2023-07-02T00:13:21;17.60;99.90
25280;DHT22;13225;47.804;12.116;2023-07-02T00:15:46;17.60;99.90
25280;DHT22;13225;47.804;12.116;2023-07-02T00:18:12;17.50;99.90
25280;DHT22;13225;47.804;12.116;2023-07-02T00:20:41;17.50;99.90
25280;DHT22;13225;47.804;12.116;2023-07-02T00:23:07;17.50;99.90
25280;DHT22;13225;47.804;12.116;2023-07-02T00:25:35;17.50;99.90
25280;DHT22;13225;47.804;12.116;2023-07-02T00:28:01;17.50;99.90
25280;DHT22;13225;47.804;12.116;2023-07-02T00:30:26;17.40;99.90
25280;DHT22;13225;47.804;12.116;2023-07-02T00:32:52;17.40;99.90
25280;DHT22;13225;47.804;12.116;2023-07-02T00:35:17;17.40;99.90
25280;DHT22;13225;47.804;12.116;2023-07-02T00:37:43;17.50;99.90
25280;DHT22;13225;47.804;12.116;2023-07-02T00:40:09;17.50;99.90
25280;DHT22;13225;47.804;12.116;2023-07-02T00:42:34;17.50;99.90
25280;DHT22;13225;47.804;12.116;2023-07-02T00:45:00;17.50;99.90
25280;DHT22;13225;47.804;12.116;2023-07-02T00:47:30;17.50;99.90
25280;DHT22;13225;47.804;12.116;2023-07-02T00:49:57;17.50;99.90
25280;DHT22;13225;47.804;12.116;2023-07-02T00:52:23;17.50;99.90
25280;DHT22;13225;47.804;12.116;2023-07-02T00:54:51;17.40;99.90
25280;DHT22;13225;47.804;12.116;2023-07-02T00:57:17;17.40;99.90
25280;DHT22;13225;47.804;12.116;2023-07-02T00:59:42;17.40;99.90
25280;DHT22;13225;47.804;12.116;2023-07-02T01:02:08;17.40;99.90
25280;DHT22;13225;47.804;12.116;2023-07-02T01:04:34;17.40;99.90
25280;DHT22;13225;47.804;12.116;2023-07-02T01:06:59;17.40;99.90
25280;DHT22;13225;47.804;12.116;2023-07-02T01:09:25;17.30;99.90
25280;DHT22;13225;47.804;12.116;2023-07-02T01:11:59;17.30;99.90
25280;DHT22;13225;47.804;12.116;2023-07-02T01:14:47;17.20;99.90
25280;DHT22;13225;47.804;12.116;2023-07-02T01:17:13;17.30;99.90
25280;DHT22;13225;47.804;12.116;2023-07-02T01:22:09;17.30;99.90
25280;DHT22;13225;47.804;12.116;2023-07-02T01:24:36;17.40;99.90
25280;DHT22;13225;47.804;12.116;2023-07-02T01:27:03;17.50;99.90
25280;DHT22;13225;47.804;12.116;2023-07-02T01:29:30;17.50;99.90
25280;DHT22;13225;47.804;12.116;2023-07-02T01:31:56;17.50;99.90
25280;DHT22;13225;47.804;12.116;2023-07-02T01:34:22;17.40;99.90
25280;DHT22;13225;47.804;12.116;2023-07-02T01:36:48;17.20;99.90
25280;DHT22;13225;47.804;12.116;2023-07-02T01:39:14;17.10;99.90
25280;DHT22;13225;47.804;12.116;2023-07-02T01:41:54;17.00;99.90
25280;DHT22;13225;47.804;12.116;2023-07-02T01:44:21;17.00;99.90
25280;DHT22;13225;47.804;12.116;2023-07-02T01:46:47;16.80;99.90
25280;DHT22;13225;47.804;12.116;2023-07-02T01:49:18;16.80;99.90
25280;DHT22;13225;47.804;12.116;2023-07-02T01:51:53;16.70;99.90
25280;DHT22;13225;47.804;12.116;2023-07-02T01:54:21;16.60;99.90
25280;DHT22;13225;47.804;12.116;2023-07-02T01:56:47;16.60;99.90
25280;DHT22;13225;47.804;12.116;2023-07-02T01:59:13;16.50;99.90
25280;DHT22;13225;47.804;12.116;2023-07-02T02:01:39;16.50;99.90
25280;DHT22;13225;47.804;12.116;2023-07-02T02:04:08;16.60;99.90
25280;DHT22;13225;47.804;12.116;2023-07-02T02:06:34;16.60;99.90
25280;DHT22;13225;47.804;12.116;2023-07-02T02:09:01;16.70;99.90
25280;DHT22;13225;47.804;12.116;2023-07-02T02:11:28;16.70;99.90
25280;DHT22;13225;47.804;12.116;2023-07-02T02:13:54;16.70;99.90
25280;DHT22;13225;47.804;12.116;2023-07-02T02:16:20;16.70;99.90
25280;DHT22;13225;47.804;12.116;2023-07-02T02:18:45;16.70;99.90
25280;DHT22;13225;47.804;12.116;2023-07-02T02:21:11;16.60;99.90
25280;DHT22;13225;47.804;12.116;2023-07-02T02:23:37;16.80;99.90
25280;DHT22;13225;47.804;12.116;2023-07-02T02:26:02;16.80;99.90
25280;DHT22;13225;47.804;12.116;2023-07-02T02:28:28;16.70;99.90
25280;DHT22;13225;47.804;12.116;2023-07-02T02:30:53;16.70;99.90
25280;DHT22;13225;47.804;12.116;2023-07-02T02:33:19;16.70;99.90
25280;DHT22;13225;47.804;12.116;2023-07-02T02:35:45;16.70;99.90
25280;DHT22;13225;47.804;12.116;2023-07-02T02:38:11;16.70;99.90
25280;DHT22;13225;47.804;12.116;2023-07-02T02:40:37;16.70;99.90
25280;DHT22;13225;47.804;12.116;2023-07-02T02:43:02;16.70;99.90
25280;DHT22;13225;47.804;12.116;2023-07-02T02:45:28;16.70;99.90
25280;DHT22;13225;47.804;12.116;2023-07-02T02:47:54;16.70;99.90
25280;DHT22;13225;47.804;12.116;2023-07-02T02:50:20;16.70;99.90
25280;DHT22;13225;47.804;12.116;2023-07-02T02:52:45;16.60;99.90
25280;DHT22;13225;47.804;12.116;2023-07-02T02:55:12;16.60;99.90
25280;DHT22;13225;47.804;12.116;2023-07-02T02:57:37;16.50;99.90
25280;DHT22;13225;47.804;12.116;2023-07-02T03:00:03;16.50;99.90
25280;DHT22;13225;47.804;12.116;2023-07-02T03:02:30;16.60;99.90
25280;DHT22;13225;47.804;12.116;2023-07-02T03:04:56;16.50;99.90
25280;DHT22;13225;47.804;12.116;2023-07-02T03:07:22;16.50;99.90
25280;DHT22;13225;47.804;12.116;2023-07-02T03:09:48;16.50;99.90
25280;DHT22;13225;47.804;12.116;2023-07-02T03:12:13;16.50;99.90
25280;DHT22;13225;47.804;12.116;2023-07-02T03:14:39;16.50;99.90
25280;DHT22;13225;47.804;12.116;2023-07-02T03:17:04;16.60;99.90
25280;DHT22;13225;47.804;12.116;2023-07-02T03:19:30;16.50;99.90
25280;DHT22;13225;47.804;12.116;2023-07-02T03:21:55;16.50;99.90
25280;DHT22;13225;47.804;12.116;2023-07-02T03:24:21;16.50;99.90
25280;DHT22;13225;47.804;12.116;2023-07-02T03:26:46;16.40;99.90
25280;DHT22;13225;47.804;12.116;2023-07-02T03:29:12;16.50;99.90
25280;DHT22;13225;47.804;12.116;2023-07-02T03:31:38;16.50;99.90
25280;DHT22;13225;47.804;12.116;2023-07-02T03:34:07;16.50;99.90
25280;DHT22;13225;47.804;12.116;2023-07-02T03:36:32;16.50;99.90
25280;DHT22;13225;47.804;12.116;2023-07-02T03:38:58;16.50;99.90
25280;DHT22;13225;47.804;12.116;2023-07-02T03:41:24;16.50;99.90
25280;DHT22;13225;47.804;12.116;2023-07-02T03:43:50;16.50;99.90
25280;DHT22;13225;47.804;12.116;2023-07-02T03:46:16;16.50;99.90
25280;DHT22;13225;47.804;12.116;2023-07-02T03:48:41;16.50;99.90
25280;DHT22;13225;47.804;12.116;2023-07-02T03:51:07;16.50;99.90
25280;DHT22;13225;47.804;12.116;2023-07-02T03:53:33;16.50;99.90
25280;DHT22;13225;47.804;12.116;2023-07-02T03:55:58;16.50;99.90
25280;DHT22;13225;47.804;12.116;2023-07-02T03:58:24;16.60;99.90
25280;DHT22;13225;47.804;12.116;2023-07-02T04:00:49;16.60;99.90
25280;DHT22;13225;47.804;12.116;2023-07-02T04:03:16;16.70;99.90
25280;DHT22;13225;47.804;12.116;2023-07-02T04:05:42;16.60;99.90
25280;DHT22;13225;47.804;12.116;2023-07-02T04:08:08;16.70;99.90
25280;DHT22;13225;47.804;12.116;2023-07-02T04:10:33;16.80;99.90
25280;DHT22;13225;47.804;12.116;2023-07-02T04:12:59;16.80;99.90
25280;DHT22;13225;47.804;12.116;2023-07-02T04:15:24;16.90;99.90
25280;DHT22;13225;47.804;12.116;2023-07-02T04:17:51;16.90;99.90
25280;DHT22;13225;47.804;12.116;2023-07-02T04:20:17;16.80;99.90
25280;DHT22;13225;47.804;12.116;2023-07-02T04:22:47;16.80;99.90
25280;DHT22;13225;47.804;12.116;2023-07-02T04:25:14;16.70;99.90
25280;DHT22;13225;47.804;12.116;2023-07-02T04:27:41;16.70;99.90
25280;DHT22;13225;47.804;12.116;2023-07-02T04:30:08;16.70;99.90
25280;DHT22;13225;47.804;12.116;2023-07-02T04:32:38;16.60;99.90
25280;DHT22;13225;47.804;12.116;2023-07-02T04:35:10;16.60;99.90
25280;DHT22;13225;47.804;12.116;2023-07-02T04:37:36;16.50;99.90
25280;DHT22;13225;47.804;12.116;2023-07-02T04:40:02;16.50;99.90
25280;DHT22;13225;47.804;12.116;2023-07-02T04:42:38;16.40;99.90
25280;DHT22;13225;47.804;12.116;2023-07-02T04:45:05;16.40;99.90
25280;DHT22;13225;47.804;12.116;2023-07-02T04:47:31;16.40;99.90
25280;DHT22;13225;47.804;12.116;2023-07-02T04:49:57;16.50;99.90
25280;DHT22;13225;47.804;12.116;2023-07-02T04:52:23;16.50;99.90
25280;DHT22;13225;47.804;12.116;2023-07-02T04:54:48;16.40;99.90
25280;DHT22;13225;47.804;12.116;2023-07-02T04:57:14;16.40;99.90
25280;DHT22;13225;47.804;12.116;2023-07-02T04:59:42;16.50;99.90
25280;DHT22;13225;47.804;12.116;2023-07-02T05:02:08;16.50;99.90
25280;DHT22;13225;47.804;12.116;2023-07-02T05:04:33;16.40;99.90
25280;DHT22;13225;47.804;12.116;2023-07-02T05:07:02;16.30;99.90
25280;DHT22;13225;47.804;12.116;2023-07-02T05:09:28;16.10;99.90
25280;DHT22;13225;47.804;12.116;2023-07-02T05:11:53;15.90;99.90
25280;DHT22;13225;47.804;12.116;2023-07-02T05:14:19;15.70;99.90
25280;DHT22;13225;47.804;12.116;2023-07-02T05:16:44;15.50;99.90
25280;DHT22;13225;47.804;12.116;2023-07-02T05:19:10;15.50;99.90
25280;DHT22;13225;47.804;12.116;2023-07-02T05:21:35;15.70;99.90
25280;DHT22;13225;47.804;12.116;2023-07-02T05:24:01;15.60;99.90
25280;DHT22;13225;47.804;12.116;2023-07-02T05:26:27;15.50;99.90
25280;DHT22;13225;47.804;12.116;2023-07-02T05:28:53;15.40;99.90
25280;DHT22;13225;47.804;12.116;2023-07-02T05:31:19;15.30;99.90
25280;DHT22;13225;47.804;12.116;2023-07-02T05:33:44;15.20;99.90
25280;DHT22;13225;47.804;12.116;2023-07-02T05:36:10;15.20;99.90
25280;DHT22;13225;47.804;12.116;2023-07-02T05:38:36;15.00;99.90
25280;DHT22;13225;47.804;12.116;2023-07-02T05:41:04;15.00;99.90
25280;DHT22;13225;47.804;12.116;2023-07-02T05:43:30;15.20;99.90
25280;DHT22;13225;47.804;12.116;2023-07-02T05:45:58;15.00;99.90
25280;DHT22;13225;47.804;12.116;2023-07-02T05:48:25;15.10;99.90
25280;DHT22;13225;47.804;12.116;2023-07-02T05:50:51;15.10;99.90
25280;DHT22;13225;47.804;12.116;2023-07-02T05:53:16;15.20;99.90
25280;DHT22;13225;47.804;12.116;2023-07-02T05:55:42;15.10;99.90
25280;DHT22;13225;47.804;12.116;2023-07-02T05:58:08;15.00;99.90
25280;DHT22;13225;47.804;12.116;2023-07-02T06:00:34;15.00;99.90
25280;DHT22;13225;47.804;12.116;2023-07-02T06:02:59;15.10;99.90
25280;DHT22;13225;47.804;12.116;2023-07-02T06:05:25;15.30;99.90
25280;DHT22;13225;47.804;12.116;2023-07-02T06:07:51;15.30;99.90
25280;DHT22;13225;47.804;12.116;2023-07-02T06:10:17;15.30;99.90
25280;DHT22;13225;47.804;12.116;2023-07-02T06:12:42;15.30;99.90
25280;DHT22;13225;47.804;12.116;2023-07-02T06:15:09;15.20;99.90
25280;DHT22;13225;47.804;12.116;2023-07-02T06:17:34;15.20;99.90
25280;DHT22;13225;47.804;12.116;2023-07-02T06:20:02;15.20;99.90
25280;DHT22;13225;47.804;12.116;2023-07-02T06:22:30;15.20;99.90
25280;DHT22;13225;47.804;12.116;2023-07-02T06:24:55;15.30;99.90
25280;DHT22;13225;47.804;12.116;2023-07-02T06:27:21;15.50;99.90
25280;DHT22;13225;47.804;12.116;2023-07-02T06:29:47;15.60;99.90
25280;DHT22;13225;47.804;12.116;2023-07-02T06:32:13;15.60;99.90
25280;DHT22;13225;47.804;12.116;2023-07-02T06:34:38;15.60;99.90
25280;DHT22;13225;47.804;12.116;2023-07-02T06:37:04;15.60;99.90
25280;DHT22;13225;47.804;12.116;2023-07-02T06:39:30;15.60;99.90
25280;DHT22;13225;47.804;12.116;2023-07-02T06:41:56;15.60;99.90
25280;DHT22;13225;47.804;12.116;2023-07-02T06:44:21;15.70;99.90
25280;DHT22;13225;47.804;12.116;2023-07-02T06:46:47;15.60;99.90
25280;DHT22;13225;47.804;12.116;2023-07-02T06:49:13;15.70;99.90
25280;DHT22;13225;47.804;12.116;2023-07-02T06:51:38;16.00;99.90
25280;DHT22;13225;47.804;12.116;2023-07-02T06:54:04;16.00;99.90
25280;DHT22;13225;47.804;12.116;2023-07-02T06:56:30;16.20;99.90
25280;DHT22;13225;47.804;12.116;2023-07-02T06:58:57;16.10;99.90
25280;DHT22;13225;47.804;12.116;2023-07-02T07:01:23;16.10;99.90
25280;DHT22;13225;47.804;12.116;2023-07-02T07:03:49;16.10;99.90
25280;DHT22;13225;47.804;12.116;2023-07-02T07:06:14;16.00;99.90
25280;DHT22;13225;47.804;12.116;2023-07-02T07:08:40;16.10;99.90
25280;DHT22;13225;47.804;12.116;2023-07-02T07:11:06;16.10;99.90
25280;DHT22;13225;47.804;12.116;2023-07-02T07:13:31;16.00;99.90
25280;DHT22;13225;47.804;12.116;2023-07-02T07:15:57;15.90;99.90
25280;DHT22;13225;47.804;12.116;2023-07-02T07:18:22;15.90;99.90
25280;DHT22;13225;47.804;12.116;2023-07-02T07:20:48;16.00;99.90
25280;DHT22;13225;47.804;12.116;2023-07-02T07:23:15;16.10;99.90
25280;DHT22;13225;47.804;12.116;2023-07-02T07:25:41;16.10;99.90
25280;DHT22;13225;47.804;12.116;2023-07-02T07:28:07;16.10;99.90
25280;DHT22;13225;47.804;12.116;2023-07-02T07:30:37;16.10;99.90
25280;DHT22;13225;47.804;12.116;2023-07-02T07:33:02;16.20;99.90
25280;DHT22;13225;47.804;12.116;2023-07-02T07:35:28;16.20;99.90
25280;DHT22;13225;47.804;12.116;2023-07-02T07:37:53;16.40;99.90
25280;DHT22;13225;47.804;12.116;2023-07-02T07:40:19;16.50;99.90
25280;DHT22;13225;47.804;12.116;2023-07-02T07:42:44;16.20;99.90
25280;DHT22;13225;47.804;12.116;2023-07-02T07:45:11;16.50;99.90
25280;DHT22;13225;47.804;12.116;2023-07-02T07:47:37;16.50;99.90
25280;DHT22;13225;47.804;12.116;2023-07-02T07:50:02;16.60;99.90
25280;DHT22;13225;47.804;12.116;2023-07-02T07:52:34;16.40;99.90
25280;DHT22;13225;47.804;12.116;2023-07-02T07:54:59;16.50;99.90
25280;DHT22;13225;47.804;12.116;2023-07-02T07:57:25;17.10;99.90
25280;DHT22;13225;47.804;12.116;2023-07-02T07:59:51;17.20;99.90
25280;DHT22;13225;47.804;12.116;2023-07-02T08:02:16;17.20;99.90
25280;DHT22;13225;47.804;12.116;2023-07-02T08:04:42;17.40;99.90
25280;DHT22;13225;47.804;12.116;2023-07-02T08:07:07;17.70;99.90
25280;DHT22;13225;47.804;12.116;2023-07-02T08:09:34;17.90;99.90
25280;DHT22;13225;47.804;12.116;2023-07-02T08:12:00;18.20;99.90
25280;DHT22;13225;47.804;12.116;2023-07-02T08:14:26;18.10;99.90
25280;DHT22;13225;47.804;12.116;2023-07-02T08:16:51;18.10;99.90
25280;DHT22;13225;47.804;12.116;2023-07-02T08:19:17;18.50;99.90
25280;DHT22;13225;47.804;12.116;2023-07-02T08:21:42;18.50;99.90
25280;DHT22;13225;47.804;12.116;2023-07-02T08:24:08;18.90;99.90
25280;DHT22;13225;47.804;12.116;2023-07-02T08:26:33;18.90;99.90
25280;DHT22;13225;47.804;12.116;2023-07-02T08:28:59;19.30;99.90
25280;DHT22;13225;47.804;12.116;2023-07-02T08:31:25;19.20;99.90
25280;DHT22;13225;47.804;12.116;2023-07-02T08:33:50;19.20;99.90
25280;DHT22;13225;47.804;12.116;2023-07-02T08:36:16;19.00;99.90
25280;DHT22;13225;47.804;12.116;2023-07-02T08:38:41;19.20;99.90
25280;DHT22;13225;47.804;12.116;2023-07-02T08:41:08;19.00;99.90
25280;DHT22;13225;47.804;12.116;2023-07-02T08:43:35;19.20;99.90
25280;DHT22;13225;47.804;12.116;2023-07-02T08:46:02;19.20;99.90
25280;DHT22;13225;47.804;12.116;2023-07-02T08:48:28;19.40;99.90
25280;DHT22;13225;47.804;12.116;2023-07-02T08:50:55;19.40;99.90
25280;DHT22;13225;47.804;12.116;2023-07-02T08:53:21;19.10;99.90
25280;DHT22;13225;47.804;12.116;2023-07-02T08:55:55;19.10;99.90
25280;DHT22;13225;47.804;12.116;2023-07-02T08:58:20;18.70;99.90
25280;DHT22;13225;47.804;12.116;2023-07-02T09:01:06;18.50;99.90
25280;DHT22;13225;47.804;12.116;2023-07-02T09:03:35;18.30;99.90
25280;DHT22;13225;47.804;12.116;2023-07-02T09:06:03;17.70;99.90
25280;DHT22;13225;47.804;12.116;2023-07-02T09:08:29;17.30;99.90
25280;DHT22;13225;47.804;12.116;2023-07-02T09:13:42;16.60;99.90
25280;DHT22;13225;47.804;12.116;2023-07-02T09:16:08;16.40;99.90
25280;DHT22;13225;47.804;12.116;2023-07-02T09:18:34;16.40;99.90
25280;DHT22;13225;47.804;12.116;2023-07-02T09:21:00;16.50;99.90
25280;DHT22;13225;47.804;12.116;2023-07-02T09:23:34;16.40;99.90
25280;DHT22;13225;47.804;12.116;2023-07-02T09:26:03;16.50;99.90
25280;DHT22;13225;47.804;12.116;2023-07-02T09:28:29;16.40;99.90
25280;DHT22;13225;47.804;12.116;2023-07-02T09:30:56;16.50;99.90
25280;DHT22;13225;47.804;12.116;2023-07-02T09:33:27;16.60;99.90
25280;DHT22;13225;47.804;12.116;2023-07-02T09:35:53;16.70;99.90
25280;DHT22;13225;47.804;12.116;2023-07-02T09:38:20;16.70;99.90
25280;DHT22;13225;47.804;12.116;2023-07-02T09:40:50;16.90;99.90
25280;DHT22;13225;47.804;12.116;2023-07-02T09:43:17;17.00;99.90
25280;DHT22;13225;47.804;12.116;2023-07-02T09:45:47;17.00;99.90
25280;DHT22;13225;47.804;12.116;2023-07-02T09:48:14;17.00;99.90
25280;DHT22;13225;47.804;12.116;2023-07-02T09:50:47;17.00;99.90
25280;DHT22;13225;47.804;12.116;2023-07-02T09:53:14;16.90;99.90
25280;DHT22;13225;47.804;12.116;2023-07-02T09:55:42;16.90;99.90
25280;DHT22;13225;47.804;12.116;2023-07-02T09:58:08;17.00;99.90
25280;DHT22;13225;47.804;12.116;2023-07-02T10:00:35;17.10;99.90
25280;DHT22;13225;47.804;12.116;2023-07-02T10:03:00;17.30;99.90
25280;DHT22;13225;47.804;12.116;2023-07-02T10:05:30;17.40;99.90
25280;DHT22;13225;47.804;12.116;2023-07-02T10:08:14;17.60;99.90
25280;DHT22;13225;47.804;12.116;2023-07-02T10:10:42;17.80;99.90
25280;DHT22;13225;47.804;12.116;2023-07-02T10:13:08;17.90;99.90
25280;DHT22;13225;47.804;12.116;2023-07-02T10:15:33;18.00;99.90
25280;DHT22;13225;47.804;12.116;2023-07-02T10:18:03;17.90;99.90
25280;DHT22;13225;47.804;12.116;2023-07-02T10:20:37;17.90;99.90
25280;DHT22;13225;47.804;12.116;2023-07-02T10:23:07;18.00;99.90
25280;DHT22;13225;47.804;12.116;2023-07-02T10:25:35;18.00;99.90
25280;DHT22;13225;47.804;12.116;2023-07-02T10:28:14;17.90;99.90
25280;DHT22;13225;47.804;12.116;2023-07-02T10:30:40;17.90;99.90
25280;DHT22;13225;47.804;12.116;2023-07-02T10:33:13;17.90;99.90
25280;DHT22;13225;47.804;12.116;2023-07-02T10:35:40;18.00;99.90
25280;DHT22;13225;47.804;12.116;2023-07-02T10:38:25;18.10;99.90
25280;DHT22;13225;47.804;12.116;2023-07-02T10:41:00;18.00;99.90
25280;DHT22;13225;47.804;12.116;2023-07-02T10:43:26;18.00;99.90
25280;DHT22;13225;47.804;12.116;2023-07-02T10:45:53;18.00;99.90
25280;DHT22;13225;47.804;12.116;2023-07-02T10:48:18;18.20;99.90
25280;DHT22;13225;47.804;12.116;2023-07-02T10:50:44;18.50;99.90
25280;DHT22;13225;47.804;12.116;2023-07-02T10:53:15;19.20;99.90
25280;DHT22;13225;47.804;12.116;2023-07-02T10:55:42;19.60;99.90
25280;DHT22;13225;47.804;12.116;2023-07-02T10:58:09;19.80;99.90
25280;DHT22;13225;47.804;12.116;2023-07-02T11:00:47;19.80;99.90
25280;DHT22;13225;47.804;12.116;2023-07-02T11:03:24;20.10;99.90
25280;DHT22;13225;47.804;12.116;2023-07-02T11:05:51;20.20;99.90
25280;DHT22;13225;47.804;12.116;2023-07-02T11:08:17;20.10;99.90
25280;DHT22;13225;47.804;12.116;2023-07-02T11:10:43;19.90;99.90
25280;DHT22;13225;47.804;12.116;2023-07-02T11:13:17;19.80;99.90
25280;DHT22;13225;47.804;12.116;2023-07-02T11:15:43;20.30;99.90
25280;DHT22;13225;47.804;12.116;2023-07-02T11:18:17;20.40;99.90
25280;DHT22;13225;47.804;12.116;2023-07-02T11:20:45;20.50;99.90
25280;DHT22;13225;47.804;12.116;2023-07-02T11:23:22;20.20;99.90
25280;DHT22;13225;47.804;12.116;2023-07-02T11:25:58;20.10;99.90
25280;DHT22;13225;47.804;12.116;2023-07-02T11:28:24;20.00;99.90
25280;DHT22;13225;47.804;12.116;2023-07-02T11:30:50;20.10;99.90
25280;DHT22;13225;47.804;12.116;2023-07-02T11:33:16;20.30;99.90
25280;DHT22;13225;47.804;12.116;2023-07-02T11:35:41;20.40;99.90
25280;DHT22;13225;47.804;12.116;2023-07-02T11:38:09;20.50;99.90
25280;DHT22;13225;47.804;12.116;2023-07-02T11:40:36;20.80;99.90
25280;DHT22;13225;47.804;12.116;2023-07-02T11:43:02;21.20;99.90
25280;DHT22;13225;47.804;12.116;2023-07-02T11:45:27;21.60;99.90
25280;DHT22;13225;47.804;12.116;2023-07-02T11:47:54;21.90;99.90
25280;DHT22;13225;47.804;12.116;2023-07-02T11:50:20;21.40;99.90
25280;DHT22;13225;47.804;12.116;2023-07-02T11:52:45;21.80;99.90
25280;DHT22;13225;47.804;12.116;2023-07-02T11:55:11;22.00;99.90
25280;DHT22;13225;47.804;12.116;2023-07-02T11:57:37;22.10;99.90
25280;DHT22;13225;47.804;12.116;2023-07-02T12:00:04;22.40;99.90
25280;DHT22;13225;47.804;12.116;2023-07-02T12:02:29;22.40;99.90
25280;DHT22;13225;47.804;12.116;2023-07-02T12:04:55;22.10;99.90
25280;DHT22;13225;47.804;12.116;2023-07-02T12:07:21;22.40;99.90
25280;DHT22;13225;47.804;12.116;2023-07-02T12:09:46;22.80;99.90
25280;DHT22;13225;47.804;12.116;2023-07-02T12:12:12;22.80;99.90
25280;DHT22;13225;47.804;12.116;2023-07-02T12:14:38;23.00;99.90
25280;DHT22;13225;47.804;12.116;2023-07-02T12:17:07;23.10;99.90
25280;DHT22;13225;47.804;12.116;2023-07-02T12:19:32;23.30;99.90
25280;DHT22;13225;47.804;12.116;2023-07-02T12:21:58;23.40;99.90
25280;DHT22;13225;47.804;12.116;2023-07-02T12:24:23;23.70;99.90
25280;DHT22;13225;47.804;12.116;2023-07-02T12:26:49;23.40;99.90
25280;DHT22;13225;47.804;12.116;2023-07-02T12:29:14;23.20;99.90
25280;DHT22;13225;47.804;12.116;2023-07-02T12:31:40;23.50;99.90
25280;DHT22;13225;47.804;12.116;2023-07-02T12:34:06;23.70;99.90
25280;DHT22;13225;47.804;12.116;2023-07-02T12:36:31;23.40;99.90
25280;DHT22;13225;47.804;12.116;2023-07-02T12:38:57;23.70;99.90
25280;DHT22;13225;47.804;12.116;2023-07-02T12:41:22;23.00;99.90
25280;DHT22;13225;47.804;12.116;2023-07-02T12:43:48;22.90;99.90
25280;DHT22;13225;47.804;12.116;2023-07-02T12:46:13;22.80;99.90
25280;DHT22;13225;47.804;12.116;2023-07-02T12:48:39;23.40;99.90
25280;DHT22;13225;47.804;12.116;2023-07-02T12:51:05;24.30;99.90
25280;DHT22;13225;47.804;12.116;2023-07-02T12:53:30;24.70;99.90
25280;DHT22;13225;47.804;12.116;2023-07-02T12:55:56;24.40;99.90
25280;DHT22;13225;47.804;12.116;2023-07-02T12:58:21;24.70;99.90
25280;DHT22;13225;47.804;12.116;2023-07-02T13:00:47;24.90;99.90
25280;DHT22;13225;47.804;12.116;2023-07-02T13:03:13;24.80;99.90
25280;DHT22;13225;47.804;12.116;2023-07-02T13:05:40;25.40;99.90
25280;DHT22;13225;47.804;12.116;2023-07-02T13:08:06;26.30;99.90
25280;DHT22;13225;47.804;12.116;2023-07-02T13:10:33;25.80;99.90
25280;DHT22;13225;47.804;12.116;2023-07-02T13:12:59;25.60;99.90
25280;DHT22;13225;47.804;12.116;2023-07-02T13:15:25;25.20;99.90
25280;DHT22;13225;47.804;12.116;2023-07-02T13:17:51;25.70;99.90
25280;DHT22;13225;47.804;12.116;2023-07-02T13:20:16;26.30;99.90
25280;DHT22;13225;47.804;12.116;2023-07-02T13:22:42;25.50;99.90
25280;DHT22;13225;47.804;12.116;2023-07-02T13:25:08;25.00;99.90
25280;DHT22;13225;47.804;12.116;2023-07-02T13:27:33;25.80;99.90
25280;DHT22;13225;47.804;12.116;2023-07-02T13:29:59;25.30;99.90
25280;DHT22;13225;47.804;12.116;2023-07-02T13:32:25;24.20;99.90
25280;DHT22;13225;47.804;12.116;2023-07-02T13:34:51;24.40;99.90
25280;DHT22;13225;47.804;12.116;2023-07-02T13:37:17;24.90;99.90
25280;DHT22;13225;47.804;12.116;2023-07-02T13:39:49;24.60;99.90
25280;DHT22;13225;47.804;12.116;2023-07-02T13:42:15;24.20;99.90
25280;DHT22;13225;47.804;12.116;2023-07-02T13:44:42;24.50;99.90
25280;DHT22;13225;47.804;12.116;2023-07-02T13:47:08;24.50;99.90
25280;DHT22;13225;47.804;12.116;2023-07-02T13:49:33;24.80;99.90
25280;DHT22;13225;47.804;12.116;2023-07-02T13:51:59;25.10;99.90
25280;DHT22;13225;47.804;12.116;2023-07-02T13:54:25;25.10;99.90
25280;DHT22;13225;47.804;12.116;2023-07-02T13:56:52;24.80;99.90
25280;DHT22;13225;47.804;12.116;2023-07-02T13:59:19;24.00;99.90
25280;DHT22;13225;47.804;12.116;2023-07-02T14:01:46;23.90;99.90
25280;DHT22;13225;47.804;12.116;2023-07-02T14:04:13;24.50;99.90
25280;DHT22;13225;47.804;12.116;2023-07-02T14:06:39;25.10;99.90
25280;DHT22;13225;47.804;12.116;2023-07-02T14:09:05;25.70;99.90
25280;DHT22;13225;47.804;12.116;2023-07-02T14:11:32;26.20;99.90
25280;DHT22;13225;47.804;12.116;2023-07-02T14:13:58;26.20;99.90
25280;DHT22;13225;47.804;12.116;2023-07-02T14:16:24;25.30;99.90
25280;DHT22;13225;47.804;12.116;2023-07-02T14:18:50;25.90;99.90
25280;DHT22;13225;47.804;12.116;2023-07-02T14:21:16;25.40;99.90
25280;DHT22;13225;47.804;12.116;2023-07-02T14:23:43;25.10;99.90
25280;DHT22;13225;47.804;12.116;2023-07-02T14:26:09;24.70;99.90
25280;DHT22;13225;47.804;12.116;2023-07-02T14:28:35;25.20;99.90
25280;DHT22;13225;47.804;12.116;2023-07-02T14:31:02;26.10;99.90
25280;DHT22;13225;47.804;12.116;2023-07-02T14:33:30;26.50;99.90
25280;DHT22;13225;47.804;12.116;2023-07-02T14:35:56;26.20;99.90
25280;DHT22;13225;47.804;12.116;2023-07-02T14:38:23;26.00;99.90
25280;DHT22;13225;47.804;12.116;2023-07-02T14:40:49;26.20;99.90
25280;DHT22;13225;47.804;12.116;2023-07-02T14:43:16;26.90;99.90
25280;DHT22;13225;47.804;12.116;2023-07-02T14:45:50;27.10;99.90
25280;DHT22;13225;47.804;12.116;2023-07-02T14:48:17;26.50;99.90
25280;DHT22;13225;47.804;12.116;2023-07-02T14:50:49;26.10;99.90
25280;DHT22;13225;47.804;12.116;2023-07-02T14:53:15;26.30;99.90
25280;DHT22;13225;47.804;12.116;2023-07-02T14:55:41;26.60;99.90
25280;DHT22;13225;47.804;12.116;2023-07-02T14:58:07;27.40;99.90
25280;DHT22;13225;47.804;12.116;2023-07-02T15:00:33;28.30;99.90
25280;DHT22;13225;47.804;12.116;2023-07-02T15:02:59;27.30;99.90
25280;DHT22;13225;47.804;12.116;2023-07-02T15:05:24;27.10;99.90
25280;DHT22;13225;47.804;12.116;2023-07-02T15:07:50;27.10;99.90
25280;DHT22;13225;47.804;12.116;2023-07-02T15:10:17;27.10;99.90
25280;DHT22;13225;47.804;12.116;2023-07-02T15:12:42;26.40;99.90
25280;DHT22;13225;47.804;12.116;2023-07-02T15:15:08;26.20;99.90
25280;DHT22;13225;47.804;12.116;2023-07-02T15:17:34;25.80;99.90